createdAt,value
2018-07-31T00:00:26.220Z,11.55
2018-07-31T00:02:53.516Z,10.82
2018-07-31T00:05:20.781Z,13.22
2018-07-31T00:07:48.305Z,13.45
2018-07-31T00:10:15.884Z,10.85
2018-07-31T00:12:44.020Z,10.35
2018-07-31T00:15:11.889Z,13.22
2018-07-31T00:17:39.172Z,15.53
2018-07-31T00:20:06.488Z,13.60
2018-07-31T00:22:37.195Z,13.35
2018-07-31T00:25:09.051Z,11.25
2018-07-31T00:27:36.719Z,14.13
2018-07-31T00:30:06.435Z,11.05
2018-07-31T00:32:33.658Z,10.50
2018-07-31T00:35:10.899Z,14.63
2018-07-31T00:37:38.552Z,10.90
2018-07-31T00:40:05.866Z,11.40
2018-07-31T00:42:33.123Z,11.18
2018-07-31T00:45:02.972Z,10.55
2018-07-31T00:47:30.771Z,10.82
2018-07-31T00:49:58.066Z,10.50
2018-07-31T00:52:25.310Z,11.28
2018-07-31T00:54:52.838Z,10.80
2018-07-31T00:57:54.172Z,10.85
2018-07-31T01:03:14.817Z,13.32
2018-07-31T01:05:42.386Z,12.43
2018-07-31T01:08:09.651Z,11.25
2018-07-31T01:10:42.547Z,15.63
2018-07-31T01:13:10.701Z,11.00
2018-07-31T01:15:39.739Z,11.97
2018-07-31T01:18:07.040Z,14.07
2018-07-31T01:20:34.389Z,10.85
2018-07-31T01:23:01.650Z,11.28
2018-07-31T01:25:28.895Z,11.00
2018-07-31T01:27:56.255Z,13.75
2018-07-31T01:30:25.584Z,12.00
2018-07-31T01:32:52.923Z,12.13
2018-07-31T01:35:25.350Z,15.48
2018-07-31T01:37:52.646Z,11.22
2018-07-31T01:40:19.969Z,12.63
2018-07-31T01:42:52.218Z,12.28
2018-07-31T01:45:19.571Z,11.00
2018-07-31T01:47:48.810Z,11.48
2018-07-31T01:50:52.843Z,11.15
2018-07-31T01:53:20.150Z,11.48
2018-07-31T01:55:48.490Z,11.40
2018-07-31T01:58:15.752Z,11.33
2018-07-31T02:00:43.018Z,11.43
2018-07-31T02:05:58.284Z,11.65
2018-07-31T02:08:38.099Z,11.57
2018-07-31T02:11:05.795Z,11.15
2018-07-31T02:13:33.057Z,11.93
2018-07-31T02:16:00.334Z,11.53
2018-07-31T02:18:27.634Z,11.70
2018-07-31T02:20:54.921Z,11.60
2018-07-31T02:23:26.697Z,13.95
2018-07-31T02:25:57.976Z,11.40
2018-07-31T02:28:41.345Z,10.75
2018-07-31T02:31:08.916Z,12.00
2018-07-31T02:33:36.395Z,12.25
2018-07-31T02:38:56.028Z,10.98
2018-07-31T02:41:23.296Z,11.43
2018-07-31T02:46:32.549Z,12.35
2018-07-31T02:49:14.383Z,11.65
2018-07-31T02:51:41.754Z,13.75
2018-07-31T02:54:09.376Z,14.03
2018-07-31T02:56:36.627Z,11.78
2018-07-31T02:59:04.175Z,12.37
2018-07-31T03:01:31.418Z,13.13
2018-07-31T03:03:58.674Z,14.38
2018-07-31T03:06:25.947Z,11.60
2018-07-31T03:08:53.183Z,12.70
2018-07-31T03:11:20.444Z,16.90
2018-07-31T03:13:47.681Z,12.47
2018-07-31T03:16:15.158Z,12.45
2018-07-31T03:18:42.422Z,12.07
2018-07-31T03:21:10.094Z,12.88
2018-07-31T03:23:37.396Z,11.55
2018-07-31T03:26:05.814Z,12.55
2018-07-31T03:28:33.455Z,11.45
2018-07-31T03:31:00.826Z,11.80
2018-07-31T03:33:29.206Z,12.45
2018-07-31T03:35:56.442Z,12.10
2018-07-31T03:38:23.694Z,11.08
2018-07-31T03:40:51.675Z,14.38
2018-07-31T03:43:19.464Z,14.10
2018-07-31T03:45:47.583Z,11.60
2018-07-31T03:48:15.894Z,11.05
2018-07-31T03:50:43.135Z,12.25
2018-07-31T03:56:14.023Z,13.43
2018-07-31T03:58:41.285Z,11.40
2018-07-31T04:01:08.549Z,11.28
2018-07-31T04:03:44.570Z,12.00
2018-07-31T04:06:12.522Z,11.55
2018-07-31T04:08:58.256Z,11.95
2018-07-31T04:11:32.743Z,11.50
2018-07-31T04:14:00.688Z,11.88
2018-07-31T04:16:27.995Z,12.85
2018-07-31T04:18:55.265Z,11.63
2018-07-31T04:21:22.578Z,11.57
2018-07-31T04:23:49.813Z,16.15
2018-07-31T04:26:17.046Z,12.35
2018-07-31T04:28:46.660Z,10.82
2018-07-31T04:31:14.321Z,13.25
2018-07-31T04:33:41.926Z,12.30
2018-07-31T04:36:09.209Z,11.57
2018-07-31T04:38:36.562Z,11.65
2018-07-31T04:41:03.827Z,15.48
2018-07-31T04:43:31.133Z,11.65
2018-07-31T04:45:58.402Z,14.00
2018-07-31T04:48:25.655Z,11.93
2018-07-31T04:50:52.971Z,11.95
2018-07-31T04:53:20.226Z,11.57
2018-07-31T04:55:47.504Z,12.82
2018-07-31T04:58:14.739Z,12.03
2018-07-31T05:00:42.032Z,11.63
2018-07-31T05:03:09.590Z,14.35
2018-07-31T05:05:37.128Z,11.78
2018-07-31T05:08:04.424Z,12.63
2018-07-31T05:10:31.791Z,12.70
2018-07-31T05:12:59.257Z,12.40
2018-07-31T05:15:26.478Z,12.90
2018-07-31T05:17:53.730Z,13.38
2018-07-31T05:20:20.947Z,18.02
2018-07-31T05:22:48.270Z,18.05
2018-07-31T05:25:15.539Z,19.95
2018-07-31T05:27:42.744Z,14.53
2018-07-31T05:30:10.470Z,23.18
2018-07-31T05:32:38.164Z,24.57
2018-07-31T05:35:05.620Z,18.25
2018-07-31T05:37:32.898Z,16.23
2018-07-31T05:40:00.147Z,21.27
2018-07-31T05:42:27.421Z,17.12
2018-07-31T05:44:54.701Z,12.73
2018-07-31T05:47:21.945Z,18.27
2018-07-31T05:49:49.213Z,12.65
2018-07-31T05:52:16.428Z,10.43
2018-07-31T05:54:43.734Z,10.88
2018-07-31T05:57:11.028Z,12.75
2018-07-31T05:59:38.321Z,10.35
2018-07-31T06:02:05.590Z,10.10
2018-07-31T06:04:32.884Z,10.65
2018-07-31T06:07:00.204Z,12.07
2018-07-31T06:09:27.488Z,13.85
2018-07-31T06:11:54.744Z,11.83
2018-07-31T06:14:22.039Z,10.45
2018-07-31T06:16:49.277Z,10.43
2018-07-31T06:19:16.514Z,16.35
2018-07-31T06:21:43.775Z,11.00
2018-07-31T06:24:11.047Z,15.55
2018-07-31T06:26:38.325Z,14.35
2018-07-31T06:29:05.668Z,11.50
2018-07-31T06:31:32.911Z,12.73
2018-07-31T06:34:00.136Z,13.10
2018-07-31T06:36:27.430Z,17.60
2018-07-31T06:38:54.658Z,11.03
2018-07-31T06:41:21.895Z,16.30
2018-07-31T06:43:49.287Z,11.33
2018-07-31T06:46:16.539Z,13.88
2018-07-31T06:48:43.770Z,16.25
2018-07-31T06:51:11.552Z,17.17
2018-07-31T06:53:38.809Z,13.32
2018-07-31T06:56:06.092Z,16.97
2018-07-31T06:58:33.363Z,14.70
2018-07-31T07:01:00.610Z,10.08
2018-07-31T07:03:27.858Z,13.10
2018-07-31T07:05:55.122Z,10.35
2018-07-31T07:08:22.363Z,13.00
2018-07-31T07:10:49.615Z,10.25
2018-07-31T07:13:16.947Z,10.08
2018-07-31T07:15:44.193Z,12.53
2018-07-31T07:18:11.526Z,10.08
2018-07-31T07:20:38.775Z,13.15
2018-07-31T07:23:05.998Z,13.53
2018-07-31T07:25:33.279Z,13.35
2018-07-31T07:28:00.603Z,10.80
2018-07-31T07:30:27.802Z,9.80
2018-07-31T07:32:55.070Z,10.82
2018-07-31T07:35:22.323Z,10.10
2018-07-31T07:37:49.577Z,12.80
2018-07-31T07:40:16.890Z,10.10
2018-07-31T07:42:44.095Z,9.90
2018-07-31T07:45:11.359Z,10.68
2018-07-31T07:47:38.679Z,11.83
2018-07-31T07:50:05.983Z,9.18
2018-07-31T07:52:33.239Z,9.03
2018-07-31T07:55:00.528Z,9.43
2018-07-31T07:57:27.795Z,9.08
2018-07-31T07:59:55.064Z,11.25
2018-07-31T08:02:22.359Z,9.28
2018-07-31T08:04:49.598Z,9.30
2018-07-31T08:07:16.850Z,12.13
2018-07-31T08:09:44.130Z,7.60
2018-07-31T08:12:11.367Z,7.67
2018-07-31T08:14:38.622Z,8.20
2018-07-31T08:17:06.125Z,9.13
2018-07-31T08:19:33.343Z,7.70
2018-07-31T08:22:00.651Z,10.80
2018-07-31T08:24:27.871Z,7.40
2018-07-31T08:26:55.102Z,7.03
2018-07-31T08:29:22.340Z,7.45
2018-07-31T08:31:49.574Z,9.73
2018-07-31T08:34:16.850Z,7.42
2018-07-31T08:36:44.119Z,6.55
2018-07-31T08:39:11.375Z,7.25
2018-07-31T08:41:38.602Z,6.08
2018-07-31T08:44:06.258Z,6.92
2018-07-31T08:46:33.479Z,7.80
2018-07-31T08:49:00.748Z,6.10
2018-07-31T08:51:28.277Z,6.28
2018-07-31T08:53:55.529Z,7.85
2018-07-31T08:56:22.794Z,5.78
2018-07-31T08:58:50.019Z,6.15
2018-07-31T09:01:17.254Z,5.80
2018-07-31T09:03:44.557Z,5.85
2018-07-31T09:06:11.778Z,6.05
2018-07-31T09:08:39.171Z,6.00
2018-07-31T09:11:06.266Z,7.60
2018-07-31T09:13:33.516Z,5.72
2018-07-31T09:16:00.718Z,8.33
2018-07-31T09:18:27.979Z,5.53
2018-07-31T09:20:55.218Z,5.15
2018-07-31T09:23:22.432Z,6.25
2018-07-31T09:25:49.695Z,4.80
2018-07-31T09:28:17.737Z,5.75
2018-07-31T09:30:50.674Z,3.90
2018-07-31T09:33:17.836Z,4.60
2018-07-31T09:35:45.283Z,4.30
2018-07-31T09:38:12.545Z,4.20
2018-07-31T09:40:39.812Z,5.58
2018-07-31T09:43:07.023Z,4.20
2018-07-31T09:45:34.290Z,4.30
2018-07-31T09:48:01.548Z,3.60
2018-07-31T09:50:29.455Z,3.72
2018-07-31T09:52:56.635Z,3.50
2018-07-31T09:55:23.882Z,4.20
2018-07-31T09:57:51.267Z,3.77
2018-07-31T10:00:23.112Z,4.58
2018-07-31T10:02:51.116Z,3.80
2018-07-31T10:05:18.348Z,3.22
2018-07-31T10:07:45.524Z,3.65
2018-07-31T10:10:12.743Z,3.67
2018-07-31T10:12:40.034Z,3.30
2018-07-31T10:15:07.351Z,3.00
2018-07-31T10:17:34.671Z,3.50
2018-07-31T10:20:01.982Z,2.70
2018-07-31T10:22:29.222Z,3.02
2018-07-31T10:24:56.454Z,2.95
2018-07-31T10:27:23.665Z,2.95
2018-07-31T10:29:50.862Z,3.42
2018-07-31T10:32:18.075Z,4.15
2018-07-31T10:34:45.314Z,2.98
2018-07-31T10:37:12.775Z,2.65
2018-07-31T10:39:39.957Z,2.60
2018-07-31T10:42:07.200Z,2.87
2018-07-31T10:44:34.400Z,2.35
2018-07-31T10:47:01.591Z,3.15
2018-07-31T10:49:28.819Z,2.85
2018-07-31T10:51:56.054Z,2.70
2018-07-31T10:54:23.283Z,2.30
2018-07-31T10:56:50.511Z,2.30
2018-07-31T10:59:17.727Z,2.40
2018-07-31T11:01:44.955Z,2.27
2018-07-31T11:04:12.264Z,2.58
2018-07-31T11:06:40.016Z,2.47
2018-07-31T11:09:07.899Z,3.45
2018-07-31T11:11:35.192Z,2.40
2018-07-31T11:14:02.707Z,2.60
2018-07-31T11:16:29.962Z,3.12
2018-07-31T11:18:57.203Z,2.40
2018-07-31T11:21:24.471Z,2.35
2018-07-31T11:23:51.724Z,2.52
2018-07-31T11:26:18.982Z,3.30
2018-07-31T11:28:46.216Z,2.80
2018-07-31T11:31:13.464Z,3.40
2018-07-31T11:33:40.740Z,2.98
2018-07-31T11:36:08.011Z,2.80
2018-07-31T11:38:35.257Z,2.40
2018-07-31T11:41:02.499Z,2.60
2018-07-31T11:43:29.741Z,2.47
2018-07-31T11:45:56.975Z,2.80
2018-07-31T11:48:24.308Z,3.12
2018-07-31T11:50:51.546Z,3.15
2018-07-31T11:53:18.832Z,3.87
2018-07-31T11:55:46.100Z,3.60
2018-07-31T11:58:13.356Z,3.25
2018-07-31T12:00:40.619Z,2.70
2018-07-31T12:03:07.951Z,2.80
2018-07-31T12:05:35.227Z,2.65
2018-07-31T12:08:02.522Z,2.70
2018-07-31T12:10:29.778Z,2.55
2018-07-31T12:12:57.023Z,2.40
2018-07-31T12:15:24.334Z,2.60
2018-07-31T12:17:51.642Z,2.72
2018-07-31T12:20:18.915Z,2.87
2018-07-31T12:22:46.164Z,2.60
2018-07-31T12:25:13.575Z,4.60
2018-07-31T12:27:40.791Z,3.27
2018-07-31T12:30:08.586Z,3.50
2018-07-31T12:32:35.899Z,3.90
2018-07-31T12:35:03.203Z,3.85
2018-07-31T12:37:30.526Z,4.12
2018-07-31T12:39:57.819Z,4.15
2018-07-31T12:42:25.064Z,4.62
2018-07-31T12:44:52.371Z,4.45
2018-07-31T12:47:19.653Z,4.72
2018-07-31T12:49:46.898Z,4.33
2018-07-31T12:52:14.219Z,4.90
2018-07-31T12:54:41.507Z,4.95
2018-07-31T12:57:08.852Z,5.35
2018-07-31T12:59:36.092Z,5.28
2018-07-31T13:02:03.399Z,5.15
2018-07-31T13:04:30.666Z,5.17
2018-07-31T13:06:57.942Z,5.85
2018-07-31T13:09:25.203Z,5.45
2018-07-31T13:11:52.478Z,5.40
2018-07-31T13:14:19.747Z,5.58
2018-07-31T13:16:47.049Z,6.00
2018-07-31T13:19:14.307Z,5.10
2018-07-31T13:21:41.623Z,6.20
2018-07-31T13:24:08.915Z,5.97
2018-07-31T13:26:36.284Z,5.87
2018-07-31T13:29:03.535Z,5.20
2018-07-31T13:31:30.772Z,10.55
2018-07-31T13:33:58.032Z,6.00
2018-07-31T13:36:25.338Z,5.75
2018-07-31T13:38:52.634Z,5.92
2018-07-31T13:41:19.878Z,5.97
2018-07-31T13:43:47.249Z,5.20
2018-07-31T13:46:14.419Z,5.95
2018-07-31T13:48:41.679Z,6.10
2018-07-31T13:51:08.960Z,5.55
2018-07-31T13:53:36.236Z,5.12
2018-07-31T13:56:03.507Z,5.65
2018-07-31T13:58:30.784Z,5.12
2018-07-31T14:00:58.023Z,5.40
2018-07-31T14:03:25.283Z,5.10
2018-07-31T14:05:52.798Z,7.12
2018-07-31T14:08:20.050Z,6.92
2018-07-31T14:10:47.306Z,5.60
2018-07-31T14:13:14.615Z,5.97
2018-07-31T14:15:41.910Z,7.40
2018-07-31T14:18:09.224Z,5.70
2018-07-31T14:20:36.527Z,5.70
2018-07-31T14:23:03.824Z,5.58
2018-07-31T14:25:31.120Z,5.65
2018-07-31T14:27:58.396Z,6.00
2018-07-31T14:30:25.724Z,5.40
2018-07-31T14:32:52.992Z,5.67
2018-07-31T14:35:20.261Z,5.72
2018-07-31T14:37:47.552Z,5.75
2018-07-31T14:40:14.783Z,6.17
2018-07-31T14:42:42.146Z,6.53
2018-07-31T14:45:09.461Z,5.95
2018-07-31T14:47:36.695Z,5.65
2018-07-31T14:50:04.666Z,5.87
2018-07-31T14:52:31.923Z,5.78
2018-07-31T14:54:59.171Z,5.50
2018-07-31T14:57:26.467Z,6.30
2018-07-31T14:59:53.856Z,5.97
2018-07-31T15:02:21.139Z,7.47
2018-07-31T15:04:48.416Z,5.92
2018-07-31T15:07:15.751Z,6.25
2018-07-31T15:09:43.008Z,7.42
2018-07-31T15:12:10.259Z,6.35
2018-07-31T15:14:37.503Z,6.92
2018-07-31T15:17:04.887Z,5.65
2018-07-31T15:19:32.142Z,5.97
2018-07-31T15:21:59.403Z,5.87
2018-07-31T15:24:26.671Z,5.67
2018-07-31T15:26:54.020Z,5.62
2018-07-31T15:29:21.270Z,5.55
2018-07-31T15:31:48.520Z,5.50
2018-07-31T15:34:15.758Z,7.15
2018-07-31T15:36:43.050Z,5.78
2018-07-31T15:39:12.294Z,6.87
2018-07-31T15:41:39.906Z,5.70
2018-07-31T15:44:07.264Z,5.50
2018-07-31T15:46:34.586Z,5.50
2018-07-31T15:49:01.871Z,5.97
2018-07-31T15:51:29.119Z,6.35
2018-07-31T15:53:56.388Z,5.58
2018-07-31T15:56:23.667Z,5.92
2018-07-31T15:58:51.053Z,6.42
2018-07-31T16:01:18.335Z,9.80
2018-07-31T16:03:45.683Z,5.90
2018-07-31T16:06:13.006Z,6.53
2018-07-31T16:08:40.323Z,5.55
2018-07-31T16:11:07.571Z,5.87
2018-07-31T16:13:34.831Z,5.45
2018-07-31T16:16:02.071Z,5.72
2018-07-31T16:18:29.312Z,5.83
2018-07-31T16:20:56.654Z,5.40
2018-07-31T16:23:23.931Z,5.50
2018-07-31T16:25:51.194Z,5.10
2018-07-31T16:28:18.418Z,5.12
2018-07-31T16:30:45.703Z,5.67
2018-07-31T16:33:12.959Z,5.12
2018-07-31T16:35:40.224Z,6.47
2018-07-31T16:38:07.471Z,5.53
2018-07-31T16:40:35.754Z,5.25
2018-07-31T16:43:03.019Z,5.92
2018-07-31T16:45:30.290Z,6.05
2018-07-31T16:47:57.620Z,7.08
2018-07-31T16:50:24.901Z,5.00
2018-07-31T16:52:52.382Z,6.85
2018-07-31T16:55:19.670Z,5.85
2018-07-31T16:57:46.933Z,6.33
2018-07-31T17:00:14.237Z,5.45
2018-07-31T17:02:41.466Z,5.92
2018-07-31T17:05:08.734Z,6.75
2018-07-31T17:07:35.966Z,7.87
2018-07-31T17:10:03.743Z,5.50
2018-07-31T17:12:30.998Z,5.10
2018-07-31T17:14:58.340Z,5.22
2018-07-31T17:17:25.628Z,5.50
2018-07-31T17:19:52.891Z,5.67
2018-07-31T17:22:20.159Z,5.50
2018-07-31T17:24:47.462Z,5.90
2018-07-31T17:27:14.760Z,5.37
2018-07-31T17:29:42.264Z,5.62
2018-07-31T17:32:09.548Z,4.62
2018-07-31T17:34:36.859Z,5.55
2018-07-31T17:37:11.860Z,4.50
2018-07-31T17:39:46.894Z,5.12
2018-07-31T17:42:17.019Z,7.45
2018-07-31T17:44:46.983Z,6.10
2018-07-31T17:47:14.503Z,5.72
2018-07-31T17:49:41.791Z,5.10
2018-07-31T17:52:09.107Z,4.67
2018-07-31T17:54:36.544Z,5.62
2018-07-31T17:57:03.845Z,5.65
2018-07-31T17:59:32.117Z,5.10
2018-07-31T18:02:01.619Z,5.17
2018-07-31T18:04:29.074Z,8.05
2018-07-31T18:06:56.514Z,5.47
2018-07-31T18:09:23.779Z,6.17
2018-07-31T18:11:51.139Z,5.10
2018-07-31T18:14:18.464Z,4.87
2018-07-31T18:16:45.658Z,6.75
2018-07-31T18:19:12.943Z,5.35
2018-07-31T18:21:40.268Z,5.42
2018-07-31T18:24:07.522Z,7.20
2018-07-31T18:26:35.011Z,6.15
2018-07-31T18:29:02.420Z,5.72
2018-07-31T18:31:29.884Z,7.42
2018-07-31T18:33:57.138Z,5.97
2018-07-31T18:36:26.600Z,6.25
2018-07-31T18:38:53.903Z,6.22
2018-07-31T18:41:24.405Z,6.97
2018-07-31T18:43:51.818Z,5.58
2018-07-31T18:46:19.124Z,6.80
2018-07-31T18:48:46.545Z,5.67
2018-07-31T18:51:13.826Z,6.05
2018-07-31T18:53:41.075Z,6.53
2018-07-31T18:56:08.334Z,6.47
2018-07-31T18:58:35.657Z,5.97
2018-07-31T19:01:03.005Z,5.97
2018-07-31T19:03:30.207Z,7.53
2018-07-31T19:05:57.515Z,6.70
2018-07-31T19:08:24.744Z,10.78
2018-07-31T19:10:52.035Z,7.08
2018-07-31T19:13:19.336Z,6.45
2018-07-31T19:15:46.595Z,6.90
2018-07-31T19:18:13.867Z,6.90
2018-07-31T19:20:41.114Z,7.37
2018-07-31T19:23:08.407Z,7.33
2018-07-31T19:25:35.734Z,7.90
2018-07-31T19:28:03.114Z,8.83
2018-07-31T19:30:30.320Z,6.90
2018-07-31T19:32:57.687Z,8.23
2018-07-31T19:35:25.356Z,7.03
2018-07-31T19:37:52.621Z,6.60
2018-07-31T19:40:19.939Z,7.92
2018-07-31T19:42:47.409Z,6.65
2018-07-31T19:45:14.694Z,6.42
2018-07-31T19:47:41.960Z,11.97
2018-07-31T19:50:10.376Z,6.45
2018-07-31T19:52:37.678Z,8.40
2018-07-31T19:55:07.008Z,7.03
2018-07-31T19:57:34.709Z,7.30
2018-07-31T20:00:01.984Z,7.78
2018-07-31T20:02:30.780Z,10.05
2018-07-31T20:04:58.468Z,9.05
2018-07-31T20:07:25.882Z,7.92
2018-07-31T20:09:53.560Z,10.05
2018-07-31T20:12:20.870Z,8.23
2018-07-31T20:14:48.260Z,9.50
2018-07-31T20:17:15.535Z,7.90
2018-07-31T20:19:42.815Z,16.27
2018-07-31T20:22:10.092Z,11.10
2018-07-31T20:24:37.334Z,11.10
2018-07-31T20:27:04.631Z,13.95
2018-07-31T20:29:32.528Z,12.07
2018-07-31T20:31:59.891Z,8.80
2018-07-31T20:34:27.403Z,10.43
2018-07-31T20:36:54.706Z,14.60
2018-07-31T20:39:21.987Z,9.90
2018-07-31T20:41:49.263Z,8.10
2018-07-31T20:44:16.535Z,8.65
2018-07-31T20:46:43.831Z,10.48
2018-07-31T20:49:33.447Z,7.40
2018-07-31T20:52:00.783Z,8.68
2018-07-31T20:54:28.071Z,8.50
2018-07-31T20:56:55.362Z,7.75
2018-07-31T20:59:22.623Z,7.90
2018-07-31T21:01:51.514Z,10.23
2018-07-31T21:04:18.874Z,8.73
2018-07-31T21:06:52.888Z,8.80
2018-07-31T21:09:21.179Z,8.38
2018-07-31T21:11:50.334Z,13.38
2018-07-31T21:14:21.203Z,9.03
2018-07-31T21:16:48.609Z,9.30
2018-07-31T21:19:15.890Z,8.98
2018-07-31T21:22:03.676Z,8.30
2018-07-31T21:24:30.943Z,8.00
2018-07-31T21:27:37.806Z,8.95
2018-07-31T21:30:08.791Z,8.70
2018-07-31T21:32:36.580Z,8.50
2018-07-31T21:35:04.362Z,8.63
2018-07-31T21:37:32.028Z,8.80
2018-07-31T21:39:59.319Z,8.90
2018-07-31T21:45:16.975Z,12.37
2018-07-31T21:47:53.153Z,11.25
2018-07-31T21:50:20.474Z,10.35
2018-07-31T21:52:47.784Z,9.50
2018-07-31T21:55:15.131Z,12.80
2018-07-31T21:57:42.387Z,12.10
2018-07-31T22:03:04.783Z,10.45
2018-07-31T22:05:32.126Z,11.53
2018-07-31T22:07:59.362Z,11.45
2018-07-31T22:10:26.632Z,12.93
2018-07-31T22:12:53.897Z,12.25
2018-07-31T22:15:21.161Z,10.70
2018-07-31T22:17:48.390Z,11.25
2018-07-31T22:20:15.654Z,11.45
2018-07-31T22:22:43.232Z,9.55
2018-07-31T22:25:10.542Z,11.22
2018-07-31T22:27:38.024Z,12.43
2018-07-31T22:30:05.371Z,9.83
2018-07-31T22:32:32.609Z,13.00
2018-07-31T22:34:59.855Z,12.60
2018-07-31T22:37:27.703Z,9.35
2018-07-31T22:40:05.899Z,10.50
2018-07-31T22:42:33.180Z,9.88
2018-07-31T22:45:00.699Z,10.13
2018-07-31T22:47:27.947Z,10.50
2018-07-31T22:49:55.208Z,9.55
2018-07-31T22:52:25.298Z,9.85
2018-07-31T22:54:53.362Z,11.50
2018-07-31T22:57:20.684Z,10.75
2018-07-31T22:59:47.995Z,10.20
2018-07-31T23:02:18.342Z,9.58
2018-07-31T23:04:45.858Z,9.70
2018-07-31T23:07:13.147Z,9.75
2018-07-31T23:09:41.293Z,10.10
2018-07-31T23:12:08.574Z,11.40
2018-07-31T23:15:17.823Z,10.65
2018-07-31T23:17:45.126Z,11.50
2018-07-31T23:20:12.420Z,11.20
2018-07-31T23:22:45.606Z,10.98
2018-07-31T23:25:12.875Z,9.58
2018-07-31T23:27:40.147Z,9.25
2018-07-31T23:30:07.982Z,9.15
2018-07-31T23:32:35.807Z,9.90
2018-07-31T23:35:03.079Z,14.00
2018-07-31T23:37:30.394Z,10.10
2018-07-31T23:39:58.300Z,9.93
2018-07-31T23:42:25.643Z,9.15
2018-07-31T23:44:53.658Z,10.03
2018-07-31T23:47:24.236Z,9.95
2018-07-31T23:49:51.498Z,11.33
2018-07-31T23:52:18.765Z,9.95
2018-07-31T23:54:46.101Z,10.95
2018-07-31T23:57:13.484Z,10.80
2018-07-31T23:59:40.738Z,10.55
